Time;durP1;ratioP1;P1;durP2;ratioP2;P2;SDS_P1;SDS_P2;PMS_P1;PMS_P2;Temp;Humidity;BMP_temperature;BMP_pressure;BME280_temperature;BME280_humidity;BME280_pressure;Samples;Min_cycle;Max_cycle;Signal;HPM_P1;HPM_P2
2023/03/18 00:01:39;;;;;;;15.90;13.07;;;;;;;;;;10190142;28;20058;-68
2023/03/18 00:06:37;;;;;;;28.63;17.35;;;;;;;;;;10188895;28;20051;-69
2023/03/18 00:11:30;;;;;;;20.40;13.60;;;;;;;;;;10187728;28;20052;-68
2023/03/18 00:16:25;;;;;;;16.33;14.10;;;;;;;;;;10188007;28;20430;-68
2023/03/18 00:21:19;;;;;;;22.45;15.13;;;;;;;;;;10189797;28;20054;-68
2023/03/18 00:26:12;;;;;;;18.30;15.27;;;;;;;;;;10181079;28;20492;-68
2023/03/18 00:31:09;;;;;;;17.02;13.88;;;;;;;;;;10189211;28;20058;-68
2023/03/18 00:36:05;;;;;;;20.85;16.42;;;;;;;;;;10188568;28;20481;-68
2023/03/18 00:41:09;;;;;;;20.98;14.85;;;;;;;;;;10186802;28;20036;-68
2023/03/18 00:46:04;;;;;;;19.77;14.02;;;;;;;;;;10187992;28;20068;-68
2023/03/18 00:50:57;;;;;;;22.80;13.75;;;;;;;;;;10187753;28;20308;-69
2023/03/18 00:55:51;;;;;;;18.20;11.25;;;;;;;;;;10187904;28;20056;-68
2023/03/18 01:00:45;;;;;;;15.98;12.07;;;;;;;;;;10185121;28;20040;-68
2023/03/18 01:05:39;;;;;;;11.95;10.70;;;;;;;;;;10183699;28;20385;-69
2023/03/18 01:10:34;;;;;;;15.25;9.70;;;;;;;;;;10182990;28;20051;-68
2023/03/18 01:15:27;;;;;;;11.25;9.18;;;;;;;;;;10168804;28;20408;-69
2023/03/18 01:20:20;;;;;;;14.80;10.77;;;;;;;;;;10186540;28;20055;-69
2023/03/18 01:25:16;;;;;;;14.75;10.27;;;;;;;;;;10164985;28;20448;-69
2023/03/18 01:30:15;;;;;;;13.48;11.35;;;;;;;;;;10166048;28;20074;-69
2023/03/18 01:35:08;;;;;;;15.35;11.35;;;;;;;;;;10174654;28;20078;-68
2023/03/18 01:40:01;;;;;;;15.00;10.50;;;;;;;;;;10178382;28;20040;-68
2023/03/18 01:45:30;;;;;;;13.60;10.07;;;;;;;;;;10172283;28;20101;-69
2023/03/18 01:50:47;;;;;;;14.00;10.13;;;;;;;;;;10043338;28;20389;-69
2023/03/18 01:55:40;;;;;;;12.23;9.95;;;;;;;;;;10184907;28;20131;-69
2023/03/18 02:00:38;;;;;;;11.90;10.57;;;;;;;;;;10176711;28;20056;-69
2023/03/18 02:05:31;;;;;;;12.40;10.93;;;;;;;;;;10156986;28;20440;-69
2023/03/18 02:10:28;;;;;;;15.30;11.05;;;;;;;;;;10185493;28;20055;-69
2023/03/18 02:15:26;;;;;;;13.75;10.98;;;;;;;;;;10165408;28;20044;-69
2023/03/18 02:20:36;;;;;;;20.10;10.75;;;;;;;;;;10176756;28;20055;-69
2023/03/18 02:25:49;;;;;;;12.23;9.90;;;;;;;;;;10157955;28;20044;-69
2023/03/18 02:30:47;;;;;;;12.02;9.60;;;;;;;;;;10157655;28;20148;-69
2023/03/18 02:35:44;;;;;;;14.27;9.93;;;;;;;;;;10140751;28;20051;-69
2023/03/18 02:40:41;;;;;;;10.40;9.30;;;;;;;;;;10175351;28;20072;-69
2023/03/18 02:45:57;;;;;;;11.88;9.70;;;;;;;;;;10123629;28;20049;-68
2023/03/18 02:50:50;;;;;;;10.60;9.38;;;;;;;;;;10110927;28;20554;-69
2023/03/18 02:55:43;;;;;;;14.30;9.60;;;;;;;;;;10103078;28;20055;-68
2023/03/18 03:00:36;;;;;;;11.13;9.45;;;;;;;;;;10099507;28;20049;-68
2023/03/18 03:05:31;;;;;;;10.55;9.45;;;;;;;;;;10111059;28;20139;-69
2023/03/18 03:10:24;;;;;;;13.50;9.18;;;;;;;;;;10110714;28;20053;-69
2023/03/18 03:15:19;;;;;;;11.85;9.27;;;;;;;;;;10106772;28;20126;-69
2023/03/18 03:20:19;;;;;;;11.77;10.60;;;;;;;;;;10109977;28;20048;-69
2023/03/18 03:25:13;;;;;;;16.60;9.50;;;;;;;;;;10111489;28;20076;-69
2023/03/18 03:30:10;;;;;;;9.20;8.23;;;;;;;;;;10100238;28;20048;-69
2023/03/18 03:35:06;;;;;;;12.00;9.95;;;;;;;;;;10110555;28;20045;-69
2023/03/18 03:40:01;;;;;;;10.40;8.80;;;;;;;;;;10109080;28;20417;-68
2023/03/18 03:44:54;;;;;;;14.25;10.55;;;;;;;;;;10155516;28;20435;-68
2023/03/18 03:49:48;;;;;;;11.15;9.57;;;;;;;;;;10184025;28;20143;-69
2023/03/18 03:54:41;;;;;;;10.23;8.98;;;;;;;;;;10188738;28;20047;-68
2023/03/18 03:59:34;;;;;;;13.65;10.13;;;;;;;;;;10181282;28;20054;-68
2023/03/18 04:04:45;;;;;;;11.25;9.02;;;;;;;;;;10188149;28;20131;-69
2023/03/18 04:09:54;;;;;;;10.77;9.55;;;;;;;;;;10185595;28;20051;-69
2023/03/18 04:14:47;;;;;;;12.70;9.30;;;;;;;;;;10190140;28;20040;-69
2023/03/18 04:19:47;;;;;;;12.57;11.18;;;;;;;;;;10178855;28;20039;-68
2023/03/18 04:24:41;;;;;;;10.75;8.77;;;;;;;;;;10185100;28;20118;-69
2023/03/18 04:29:34;;;;;;;13.27;10.77;;;;;;;;;;10182765;28;20054;-69
2023/03/18 04:34:28;;;;;;;14.38;11.90;;;;;;;;;;10184383;28;20102;-69
2023/03/18 04:39:22;;;;;;;16.27;12.52;;;;;;;;;;10161447;28;20067;-68
2023/03/18 04:44:18;;;;;;;11.48;10.27;;;;;;;;;;10174990;28;20056;-68
2023/03/18 04:49:15;;;;;;;12.50;11.18;;;;;;;;;;10178613;28;20051;-69
2023/03/18 04:54:08;;;;;;;12.65;9.30;;;;;;;;;;10187380;28;20416;-69
2023/03/18 04:59:02;;;;;;;15.73;10.35;;;;;;;;;;10187367;28;20044;-66
2023/03/18 05:03:58;;;;;;;11.48;10.07;;;;;;;;;;10186323;28;20519;-66
2023/03/18 05:09:04;;;;;;;14.13;11.25;;;;;;;;;;10172962;28;20159;-67
2023/03/18 05:13:58;;;;;;;12.27;10.77;;;;;;;;;;10183010;28;20087;-67
2023/03/18 05:18:52;;;;;;;17.40;11.40;;;;;;;;;;10178311;28;20515;-68
2023/03/18 05:23:46;;;;;;;19.95;13.10;;;;;;;;;;10172086;28;20138;-68
2023/03/18 05:28:40;;;;;;;14.60;11.73;;;;;;;;;;10187471;28;20059;-68
2023/03/18 05:33:45;;;;;;;17.17;12.23;;;;;;;;;;10180809;28;20385;-68
2023/03/18 05:38:39;;;;;;;11.32;10.15;;;;;;;;;;10173956;28;20062;-68
2023/03/18 05:43:33;;;;;;;12.82;10.60;;;;;;;;;;10184115;28;20106;-69
2023/03/18 05:48:27;;;;;;;14.27;9.38;;;;;;;;;;10183173;28;20488;-68
2023/03/18 05:53:26;;;;;;;14.55;11.63;;;;;;;;;;10166084;28;20043;-68
2023/03/18 05:58:30;;;;;;;17.63;10.73;;;;;;;;;;10167551;28;20075;-68
2023/03/18 06:03:37;;;;;;;18.00;13.55;;;;;;;;;;10160260;28;20044;-68
2023/03/18 06:08:33;;;;;;;20.83;14.02;;;;;;;;;;10173294;28;20514;-68
2023/03/18 06:13:29;;;;;;;18.65;14.52;;;;;;;;;;10149736;28;20055;-68
2023/03/18 06:18:23;;;;;;;15.45;12.35;;;;;;;;;;10154087;28;20044;-68
2023/03/18 06:23:17;;;;;;;15.63;11.30;;;;;;;;;;10154918;28;20159;-68
2023/03/18 06:28:11;;;;;;;13.98;11.43;;;;;;;;;;10163539;28;20040;-68
2023/03/18 06:33:05;;;;;;;18.10;11.68;;;;;;;;;;10168213;28;20072;-66
2023/03/18 06:37:57;;;;;;;17.65;12.52;;;;;;;;;;10181241;28;20071;-66
2023/03/18 06:42:51;;;;;;;16.23;13.38;;;;;;;;;;10184648;28;20052;-66
2023/03/18 06:47:59;;;;;;;19.60;13.32;;;;;;;;;;10172755;28;20071;-65
2023/03/18 06:52:56;;;;;;;19.27;13.57;;;;;;;;;;10172194;28;20461;-65
2023/03/18 06:57:55;;;;;;;18.50;12.20;;;;;;;;;;10167443;28;20404;-65
2023/03/18 07:02:55;;;;;;;15.48;12.93;;;;;;;;;;10172416;28;20052;-66
2023/03/18 07:07:50;;;;;;;18.30;12.40;;;;;;;;;;10172479;28;20055;-66
2023/03/18 07:12:44;;;;;;;21.08;14.48;;;;;;;;;;10184858;28;20047;-66
2023/03/18 07:17:37;;;;;;;23.58;14.90;;;;;;;;;;10175346;28;20090;-65
2023/03/18 07:22:31;;;;;;;31.10;15.45;;;;;;;;;;10185970;28;20109;-65
2023/03/18 07:27:24;;;;;;;19.40;13.82;;;;;;;;;;10184019;28;20080;-66
2023/03/18 07:32:18;;;;;;;17.75;13.50;;;;;;;;;;10191305;28;20163;-66
2023/03/18 07:37:11;;;;;;;22.35;13.68;;;;;;;;;;10190552;28;20036;-65
2023/03/18 07:42:05;;;;;;;17.75;15.85;;;;;;;;;;10191014;28;20455;-65
2023/03/18 07:47:00;;;;;;;18.20;15.27;;;;;;;;;;10190198;28;20040;-69
2023/03/18 07:51:54;;;;;;;22.00;14.93;;;;;;;;;;10189476;28;20127;-67
2023/03/18 07:56:47;;;;;;;18.25;15.18;;;;;;;;;;10190242;28;20070;-68
2023/03/18 08:01:41;;;;;;;24.23;14.35;;;;;;;;;;10189959;28;20617;-68
2023/03/18 08:06:36;;;;;;;21.35;14.10;;;;;;;;;;10188400;28;20514;-68
2023/03/18 08:11:32;;;;;;;22.15;12.40;;;;;;;;;;10191675;28;20495;-68
2023/03/18 08:16:24;;;;;;;14.55;12.65;;;;;;;;;;10176997;28;20547;-67
2023/03/18 08:21:18;;;;;;;16.98;13.02;;;;;;;;;;10189228;28;20047;-68
2023/03/18 08:26:11;;;;;;;25.83;12.40;;;;;;;;;;10189462;28;20071;-68
2023/03/18 08:31:05;;;;;;;20.10;11.00;;;;;;;;;;10177702;28;20063;-68
2023/03/18 08:35:58;;;;;;;15.05;11.63;;;;;;;;;;10185024;28;20400;-68
2023/03/18 08:40:52;;;;;;;16.92;13.32;;;;;;;;;;10185558;28;20044;-69
2023/03/18 08:45:46;;;;;;;28.23;13.40;;;;;;;;;;10185770;28;20399;-68
2023/03/18 08:50:39;;;;;;;34.33;12.55;;;;;;;;;;10188363;28;20055;-68
2023/03/18 08:55:36;;;;;;;12.38;11.07;;;;;;;;;;10186117;28;20048;-68
2023/03/18 09:00:29;;;;;;;13.75;11.00;;;;;;;;;;10187578;28;20143;-68
2023/03/18 09:05:23;;;;;;;13.18;11.95;;;;;;;;;;10188024;28;20048;-68
2023/03/18 09:10:18;;;;;;;14.65;12.80;;;;;;;;;;10187743;28;20467;-68
2023/03/18 09:15:13;;;;;;;18.75;12.68;;;;;;;;;;10180153;28;20059;-69
2023/03/18 09:20:10;;;;;;;14.63;11.95;;;;;;;;;;10187233;28;20494;-69
2023/03/18 09:25:06;;;;;;;13.32;9.95;;;;;;;;;;10183340;28;20555;-68
2023/03/18 09:29:58;;;;;;;13.13;9.77;;;;;;;;;;10186760;28;20060;-68
2023/03/18 09:34:53;;;;;;;13.73;8.82;;;;;;;;;;10187193;28;20044;-68
2023/03/18 09:39:50;;;;;;;12.38;10.63;;;;;;;;;;10186756;28;20501;-68
2023/03/18 09:44:44;;;;;;;11.02;8.98;;;;;;;;;;10183290;28;20087;-69
2023/03/18 09:49:42;;;;;;;10.18;8.88;;;;;;;;;;10179469;28;20058;-69
2023/03/18 09:54:59;;;;;;;10.07;8.07;;;;;;;;;;10184643;28;20080;-69
2023/03/18 09:59:54;;;;;;;12.80;8.25;;;;;;;;;;10178700;28;20080;-69
2023/03/18 10:04:55;;;;;;;9.73;7.60;;;;;;;;;;10181426;28;20052;-68
2023/03/18 10:09:58;;;;;;;11.73;8.80;;;;;;;;;;10168828;28;20052;-69
2023/03/18 10:15:07;;;;;;;13.00;7.78;;;;;;;;;;10156955;28;20055;-69
2023/03/18 10:20:03;;;;;;;11.32;7.88;;;;;;;;;;10177373;28;20054;-69
2023/03/18 10:25:05;;;;;;;8.93;7.38;;;;;;;;;;10185529;28;20143;-66
2023/03/18 10:30:03;;;;;;;11.30;8.10;;;;;;;;;;10185223;28;20589;-69
2023/03/18 10:35:17;;;;;;;9.75;7.95;;;;;;;;;;10180268;28;20510;-66
2023/03/18 10:40:15;;;;;;;9.05;7.07;;;;;;;;;;10181893;28;20052;-66
2023/03/18 10:45:22;;;;;;;9.75;6.40;;;;;;;;;;10184633;28;20063;-66
2023/03/18 10:50:24;;;;;;;9.15;7.30;;;;;;;;;;10184294;28;20051;-66
2023/03/18 10:55:20;;;;;;;12.73;7.10;;;;;;;;;;10182161;28;20629;-66
2023/03/18 11:00:33;;;;;;;10.30;8.23;;;;;;;;;;10190398;28;20093;-66
2023/03/18 11:05:34;;;;;;;14.02;7.13;;;;;;;;;;10193103;28;20424;-66
2023/03/18 11:10:31;;;;;;;11.38;6.57;;;;;;;;;;10192353;28;20388;-67
2023/03/18 11:15:26;;;;;;;7.07;5.32;;;;;;;;;;10192166;28;20123;-66
2023/03/18 11:20:24;;;;;;;7.30;6.13;;;;;;;;;;10187602;28;20072;-67
2023/03/18 11:25:25;;;;;;;9.82;7.13;;;;;;;;;;10191679;28;20420;-66
2023/03/18 11:30:28;;;;;;;10.95;6.63;;;;;;;;;;10188113;28;20048;-66
2023/03/18 11:35:47;;;;;;;9.70;8.48;;;;;;;;;;10184629;28;20505;-66
2023/03/18 11:40:40;;;;;;;9.30;7.82;;;;;;;;;;10177798;28;20048;-66
2023/03/18 11:45:38;;;;;;;11.48;8.15;;;;;;;;;;10187381;28;20056;-66
2023/03/18 11:50:54;;;;;;;9.10;7.72;;;;;;;;;;10180272;28;20047;-66
2023/03/18 11:55:50;;;;;;;11.40;8.27;;;;;;;;;;10188690;28;20048;-66
2023/03/18 12:01:01;;;;;;;10.40;9.10;;;;;;;;;;10174858;28;20044;-69
2023/03/18 12:05:57;;;;;;;10.55;9.43;;;;;;;;;;10188704;28;20500;-68
2023/03/18 12:11:05;;;;;;;12.10;10.02;;;;;;;;;;10182688;28;20082;-68
2023/03/18 12:16:17;;;;;;;13.00;11.00;;;;;;;;;;10188883;28;20048;-65
2023/03/18 12:21:21;;;;;;;11.88;9.85;;;;;;;;;;10180243;28;20043;-68
2023/03/18 12:26:24;;;;;;;12.45;10.73;;;;;;;;;;10188412;28;20048;-68
2023/03/18 12:31:23;;;;;;;12.75;10.38;;;;;;;;;;10186413;28;20075;-68
2023/03/18 12:36:43;;;;;;;11.20;9.75;;;;;;;;;;10187735;28;20143;-69
2023/03/18 12:41:40;;;;;;;12.07;10.40;;;;;;;;;;10188955;28;20044;-68
2023/03/18 12:47:05;;;;;;;13.55;12.10;;;;;;;;;;10179931;28;20067;-68
2023/03/18 12:52:08;;;;;;;16.08;12.32;;;;;;;;;;10180788;28;20151;-69
2023/03/18 12:57:07;;;;;;;12.30;10.23;;;;;;;;;;10188113;28;20409;-67
2023/03/18 13:02:12;;;;;;;14.60;12.10;;;;;;;;;;10183374;28;20089;-67
2023/03/18 13:07:36;;;;;;;13.82;12.18;;;;;;;;;;10188045;28;20048;-67
2023/03/18 13:12:36;;;;;;;14.10;11.73;;;;;;;;;;10177330;28;20369;-67
2023/03/18 13:17:37;;;;;;;15.63;12.82;;;;;;;;;;10171926;28;20139;-68
2023/03/18 13:22:44;;;;;;;13.80;11.75;;;;;;;;;;10169557;28;20086;-66
2023/03/18 13:27:52;;;;;;;15.68;10.90;;;;;;;;;;10186820;28;20060;-66
2023/03/18 13:32:57;;;;;;;;;;;;;;;;;;10187272;28;20475;-66
2023/03/18 13:38:07;;;;;;;14.05;11.15;;;;;;;;;;10186499;28;19975;-66
2023/03/18 13:43:02;;;;;;;13.65;10.68;;;;;;;;;;10181025;28;20083;-65
2023/03/18 13:48:30;;;;;;;17.40;12.20;;;;;;;;;;10186411;28;20079;-66
2023/03/18 13:53:29;;;;;;;17.02;12.40;;;;;;;;;;10178453;28;20051;-66
2023/03/18 13:58:26;;;;;;;16.40;12.80;;;;;;;;;;10184452;28;20043;-67
2023/03/18 14:03:32;;;;;;;15.13;11.63;;;;;;;;;;10165936;28;20044;-67
2023/03/18 14:08:37;;;;;;;14.38;11.68;;;;;;;;;;10171984;28;20049;-67
2023/03/18 14:13:33;;;;;;;15.27;12.15;;;;;;;;;;10172926;28;20078;-67
2023/03/18 14:18:28;;;;;;;14.43;11.65;;;;;;;;;;10176928;28;20056;-67
2023/03/18 14:23:26;;;;;;;16.33;11.98;;;;;;;;;;10179090;28;20052;-67
2023/03/18 14:28:41;;;;;;;15.32;11.85;;;;;;;;;;10166345;28;20102;-66
2023/03/18 14:33:50;;;;;;;18.73;12.27;;;;;;;;;;10179966;28;20504;-67
2023/03/18 14:39:00;;;;;;;16.38;12.18;;;;;;;;;;10187301;28;20047;-67
2023/03/18 14:43:57;;;;;;;19.90;11.73;;;;;;;;;;10171877;28;20052;-66
2023/03/18 14:48:53;;;;;;;16.87;11.50;;;;;;;;;;10180891;28;20064;-66
2023/03/18 14:54:09;;;;;;;16.00;11.07;;;;;;;;;;10182114;28;20036;-66
2023/03/18 14:59:02;;;;;;;18.90;11.15;;;;;;;;;;10186080;28;20071;-66
2023/03/18 15:03:56;;;;;;;17.50;13.18;;;;;;;;;;10159443;28;20135;-66
2023/03/18 15:09:00;;;;;;;14.40;10.52;;;;;;;;;;10170589;28;20045;-66
2023/03/18 15:13:55;;;;;;;13.50;11.35;;;;;;;;;;10168705;28;20056;-66
2023/03/18 15:18:53;;;;;;;19.17;12.10;;;;;;;;;;10180320;28;20055;-66
2023/03/18 15:23:47;;;;;;;14.25;10.80;;;;;;;;;;10177481;28;20063;-66
2023/03/18 15:28:40;;;;;;;12.60;10.32;;;;;;;;;;10160130;28;20043;-66
2023/03/18 15:33:36;;;;;;;14.18;10.52;;;;;;;;;;10185953;28;20143;-65
2023/03/18 15:38:30;;;;;;;13.65;10.13;;;;;;;;;;10171612;28;20048;-66
2023/03/18 15:43:38;;;;;;;15.70;11.25;;;;;;;;;;10173322;28;20500;-65
2023/03/18 15:48:41;;;;;;;16.23;11.02;;;;;;;;;;10177627;28;20131;-65
2023/03/18 15:53:42;;;;;;;16.45;10.82;;;;;;;;;;10168270;28;20040;-64
2023/03/18 15:58:36;;;;;;;13.60;10.95;;;;;;;;;;10184169;28;20140;-65
2023/03/18 16:03:32;;;;;;;15.45;11.52;;;;;;;;;;10167101;28;20568;-65
2023/03/18 16:08:27;;;;;;;17.23;10.52;;;;;;;;;;10180332;28;20041;-65
2023/03/18 16:13:23;;;;;;;20.67;12.45;;;;;;;;;;10169330;28;20044;-65
2023/03/18 16:18:17;;;;;;;21.73;11.00;;;;;;;;;;10171777;28;20048;-65
2023/03/18 16:23:11;;;;;;;18.58;11.70;;;;;;;;;;10173909;28;20497;-65
2023/03/18 16:28:06;;;;;;;15.43;11.15;;;;;;;;;;10175329;28;20040;-64
2023/03/18 16:32:59;;;;;;;15.98;11.15;;;;;;;;;;10174706;28;20044;-65
2023/03/18 16:37:53;;;;;;;14.02;9.98;;;;;;;;;;10176907;28;20037;-64
2023/03/18 16:42:46;;;;;;;22.13;10.15;;;;;;;;;;10177688;28;20459;-64
2023/03/18 16:47:40;;;;;;;19.60;13.38;;;;;;;;;;10184938;28;20036;-64
2023/03/18 16:52:34;;;;;;;16.90;9.98;;;;;;;;;;10154763;28;20048;-64
2023/03/18 16:57:27;;;;;;;18.17;8.63;;;;;;;;;;10168164;28;20052;-64
2023/03/18 17:02:32;;;;;;;12.52;8.13;;;;;;;;;;10176223;28;20056;-65
2023/03/18 17:07:28;;;;;;;14.30;8.80;;;;;;;;;;10175842;28;20064;-65
2023/03/18 17:12:22;;;;;;;13.68;8.77;;;;;;;;;;10180438;28;20508;-65
2023/03/18 17:17:28;;;;;;;11.48;8.18;;;;;;;;;;10171586;28;20064;-64
2023/03/18 17:22:25;;;;;;;15.80;9.05;;;;;;;;;;10157270;28;20064;-65
2023/03/18 17:27:26;;;;;;;12.02;9.23;;;;;;;;;;10178471;28;20442;-65
2023/03/18 17:32:21;;;;;;;12.15;7.53;;;;;;;;;;10181499;28;20055;-64
2023/03/18 17:37:14;;;;;;;14.00;9.40;;;;;;;;;;10176309;28;20082;-65
2023/03/18 17:42:24;;;;;;;18.02;8.30;;;;;;;;;;10180652;28;20044;-65
2023/03/18 17:47:18;;;;;;;12.90;8.75;;;;;;;;;;10176647;28;20048;-65
2023/03/18 17:52:13;;;;;;;13.48;9.77;;;;;;;;;;10173982;28;20105;-65
2023/03/18 17:57:13;;;;;;;13.65;9.57;;;;;;;;;;10161298;28;20052;-65
2023/03/18 18:02:16;;;;;;;15.25;9.50;;;;;;;;;;10163723;28;20530;-65
2023/03/18 18:07:33;;;;;;;19.17;9.70;;;;;;;;;;10147298;28;20475;-65
2023/03/18 18:12:27;;;;;;;17.95;12.25;;;;;;;;;;10169705;28;20060;-65
2023/03/18 18:17:20;;;;;;;23.73;15.60;;;;;;;;;;10176979;28;20095;-65
2023/03/18 18:22:19;;;;;;;25.80;21.83;;;;;;;;;;10176642;28;20078;-65
2023/03/18 18:27:13;;;;;;;20.90;17.33;;;;;;;;;;10176883;28;20052;-65
2023/03/18 18:32:08;;;;;;;14.77;11.63;;;;;;;;;;10179220;28;20127;-65
2023/03/18 18:37:01;;;;;;;16.23;9.80;;;;;;;;;;10180170;28;20052;-65
2023/03/18 18:41:54;;;;;;;20.00;13.40;;;;;;;;;;10181043;28;20452;-63
2023/03/18 18:46:47;;;;;;;21.48;12.82;;;;;;;;;;10161663;28;20491;-63
2023/03/18 18:51:41;;;;;;;22.65;14.75;;;;;;;;;;10172436;28;20052;-63
2023/03/18 18:56:35;;;;;;;16.10;12.52;;;;;;;;;;10165114;28;20063;-63
2023/03/18 19:01:29;;;;;;;16.15;11.98;;;;;;;;;;10172773;28;20048;-62
2023/03/18 19:06:28;;;;;;;17.40;13.70;;;;;;;;;;10167373;28;20098;-63
2023/03/18 19:11:23;;;;;;;21.90;14.70;;;;;;;;;;10182207;28;20044;-63
2023/03/18 19:16:40;;;;;;;16.05;14.35;;;;;;;;;;10184257;28;20036;-64
2023/03/18 19:21:33;;;;;;;17.23;13.80;;;;;;;;;;10190584;28;20056;-63
2023/03/18 19:26:26;;;;;;;19.73;15.90;;;;;;;;;;10191435;28;20056;-63
2023/03/18 19:31:25;;;;;;;26.58;14.30;;;;;;;;;;10190492;28;20691;-63
2023/03/18 19:36:25;;;;;;;18.77;15.88;;;;;;;;;;10191007;28;20056;-64
2023/03/18 19:41:19;;;;;;;20.92;16.20;;;;;;;;;;10189028;28;20050;-66
2023/03/18 19:46:19;;;;;;;18.90;14.80;;;;;;;;;;10187254;28;20068;-66
2023/03/18 19:51:14;;;;;;;20.23;16.38;;;;;;;;;;10186389;28;20087;-66
2023/03/18 19:56:24;;;;;;;22.65;18.42;;;;;;;;;;10176056;28;20099;-66
2023/03/18 20:01:19;;;;;;;35.25;28.08;;;;;;;;;;10177776;28;20068;-65
2023/03/18 20:06:12;;;;;;;35.20;25.00;;;;;;;;;;10180729;28;20052;-64
2023/03/18 20:11:11;;;;;;;27.98;24.08;;;;;;;;;;10182785;28;20523;-64
2023/03/18 20:16:07;;;;;;;27.17;21.15;;;;;;;;;;10183318;28;20044;-65
2023/03/18 20:21:02;;;;;;;32.60;22.17;;;;;;;;;;10178298;28;20454;-65
2023/03/18 20:25:55;;;;;;;25.40;20.00;;;;;;;;;;10179693;28;20085;-65
2023/03/18 20:30:51;;;;;;;23.85;19.05;;;;;;;;;;10169370;28;20047;-65
2023/03/18 20:35:46;;;;;;;27.88;18.58;;;;;;;;;;10170445;28;20094;-66
2023/03/18 20:40:41;;;;;;;24.42;19.17;;;;;;;;;;10169692;28;20040;-67
2023/03/18 20:45:35;;;;;;;20.77;17.95;;;;;;;;;;10175534;28;20122;-66
2023/03/18 20:50:30;;;;;;;19.80;16.83;;;;;;;;;;10179410;28;20052;-66
2023/03/18 20:55:25;;;;;;;22.42;17.27;;;;;;;;;;10178488;28;20155;-66
2023/03/18 21:00:22;;;;;;;20.88;17.10;;;;;;;;;;10196115;28;20056;-66
2023/03/18 21:05:16;;;;;;;25.05;16.80;;;;;;;;;;10176440;28;20051;-66
2023/03/18 21:10:21;;;;;;;21.08;17.48;;;;;;;;;;10181778;28;20552;-65
2023/03/18 21:15:16;;;;;;;21.10;16.67;;;;;;;;;;10176548;28;20059;-66
2023/03/18 21:20:17;;;;;;;29.98;15.95;;;;;;;;;;10166487;28;20092;-66
2023/03/18 21:25:22;;;;;;;23.23;17.52;;;;;;;;;;10176857;28;20040;-66
2023/03/18 21:30:18;;;;;;;20.25;17.13;;;;;;;;;;10171943;28;20541;-66
2023/03/18 21:35:22;;;;;;;27.52;18.10;;;;;;;;;;10177361;28;20036;-66
2023/03/18 21:40:23;;;;;;;25.35;18.23;;;;;;;;;;10175080;28;20044;-66
2023/03/18 21:45:20;;;;;;;24.25;19.70;;;;;;;;;;10164040;28;20097;-67
2023/03/18 21:50:21;;;;;;;24.15;20.42;;;;;;;;;;10177805;28;20060;-71
2023/03/18 21:55:14;;;;;;;24.25;18.05;;;;;;;;;;10168697;28;20094;-67
2023/03/18 22:00:19;;;;;;;23.20;18.70;;;;;;;;;;10185091;28;20048;-67
2023/03/18 22:05:21;;;;;;;25.00;20.42;;;;;;;;;;10185746;28;20056;-67
2023/03/18 22:10:19;;;;;;;24.38;20.20;;;;;;;;;;10185814;28;20063;-67
2023/03/18 22:15:56;;;;;;;24.45;18.70;;;;;;;;;;10185477;28;20492;-67
2023/03/18 22:20:50;;;;;;;23.23;19.88;;;;;;;;;;10185385;28;20462;-67
2023/03/18 22:25:46;;;;;;;24.33;20.52;;;;;;;;;;10184947;28;20485;-67
2023/03/18 22:30:40;;;;;;;26.13;20.40;;;;;;;;;;10185176;28;20040;-67
2023/03/18 22:35:34;;;;;;;21.17;18.88;;;;;;;;;;10185867;28;20097;-67
2023/03/18 22:40:29;;;;;;;21.38;17.88;;;;;;;;;;10184935;28;20154;-67
2023/03/18 22:45:27;;;;;;;21.15;16.27;;;;;;;;;;10173148;28;20428;-67
2023/03/18 22:50:21;;;;;;;22.83;18.02;;;;;;;;;;10185174;28;20044;-67
2023/03/18 22:55:20;;;;;;;22.45;17.33;;;;;;;;;;10189871;28;20059;-67
2023/03/18 23:00:24;;;;;;;24.00;17.83;;;;;;;;;;10193048;28;20048;-67
2023/03/18 23:05:18;;;;;;;33.67;18.20;;;;;;;;;;10188233;28;20127;-67
2023/03/18 23:10:12;;;;;;;22.05;17.45;;;;;;;;;;10192174;28;20067;-67
2023/03/18 23:15:07;;;;;;;22.02;16.73;;;;;;;;;;10191849;28;20392;-67
2023/03/18 23:20:01;;;;;;;21.42;17.63;;;;;;;;;;10192010;28;20127;-67
2023/03/18 23:24:55;;;;;;;20.25;16.85;;;;;;;;;;10191693;28;20507;-67
2023/03/18 23:29:48;;;;;;;23.73;18.55;;;;;;;;;;10191307;28;20071;-67
2023/03/18 23:34:41;;;;;;;23.23;17.95;;;;;;;;;;10191851;28;20055;-67
2023/03/18 23:39:38;;;;;;;22.88;18.75;;;;;;;;;;10190944;28;20074;-67
2023/03/18 23:44:31;;;;;;;21.98;17.35;;;;;;;;;;10190902;28;20063;-67
2023/03/18 23:49:28;;;;;;;22.33;17.92;;;;;;;;;;10190143;28;20059;-67
2023/03/18 23:54:21;;;;;;;22.17;18.90;;;;;;;;;;10190220;28;20649;-67
2023/03/18 23:59:16;;;;;;;25.38;17.73;;;;;;;;;;10190497;28;20120;-67
